« Back
NWS Peachtree City, Ga » Text Product » ATL Terminal Aerodrome Forecast


Printer-friendly Version
Current Version              Previous Versions:   1  2  3  4  5  6  7  8  9  

Terminal Aerodrome Forecast

460
FTUS42 KFFC 251935 AAB
TAFATL
TAF AMD
KATL 251935Z 2520/2624 21008G18KT P6SM SCT200
     FM252200 19008KT P6SM SCT120
     FM260000 20006KT P6SM SCT035 OVC050
     FM260500 24007KT P6SM -RA OVC025
     FM260900 27008KT P6SM -RA OVC012
     FM261500 31012G22KT P6SM BKN025
     FM261800 31016G22KT P6SM BKN250=

USA.gov is the U.S. government's official web portal to all federal, state and local government web resources and services.